sensor_id;sensor_type;location;lat;lon;timestamp;temperature;humidity
20566;DHT22;10441;50.884;12.064;2022-10-16T00:01:27;14.90;99.90
20566;DHT22;10441;50.884;12.064;2022-10-16T00:03:56;14.90;99.90
20566;DHT22;10441;50.884;12.064;2022-10-16T00:06:24;14.90;1.00
20566;DHT22;10441;50.884;12.064;2022-10-16T07:17:46;16.10;99.90
20566;DHT22;10441;50.884;12.064;2022-10-16T07:20:23;16.10;99.90
20566;DHT22;10441;50.884;12.064;2022-10-16T07:22:51;16.10;99.90
20566;DHT22;10441;50.884;12.064;2022-10-16T07:25:20;16.10;91.00
20566;DHT22;10441;50.884;12.064;2022-10-16T07:27:48;16.20;64.90
20566;DHT22;10441;50.884;12.064;2022-10-16T07:30:17;16.40;1.00
20566;DHT22;10441;50.884;12.064;2022-10-16T07:32:47;16.80;1.00
20566;DHT22;10441;50.884;12.064;2022-10-16T07:35:15;16.70;99.90
20566;DHT22;10441;50.884;12.064;2022-10-16T07:37:44;16.50;99.90
20566;DHT22;10441;50.884;12.064;2022-10-16T07:40:12;16.40;1.00
20566;DHT22;10441;50.884;12.064;2022-10-16T07:42:39;16.40;1.00
20566;DHT22;10441;50.884;12.064;2022-10-16T07:45:08;16.40;1.00
20566;DHT22;10441;50.884;12.064;2022-10-16T07:47:36;16.50;99.90
20566;DHT22;10441;50.884;12.064;2022-10-16T07:50:10;16.60;99.90
20566;DHT22;10441;50.884;12.064;2022-10-16T07:52:38;16.60;99.90
20566;DHT22;10441;50.884;12.064;2022-10-16T07:55:06;16.80;99.90
20566;DHT22;10441;50.884;12.064;2022-10-16T07:57:34;17.00;1.00
20566;DHT22;10441;50.884;12.064;2022-10-16T08:00:04;17.30;1.00
20566;DHT22;10441;50.884;12.064;2022-10-16T08:02:40;17.40;1.00
20566;DHT22;10441;50.884;12.064;2022-10-16T08:05:09;17.60;1.00
20566;DHT22;10441;50.884;12.064;2022-10-16T08:07:38;17.50;1.00
20566;DHT22;10441;50.884;12.064;2022-10-16T08:10:06;17.40;1.00
20566;DHT22;10441;50.884;12.064;2022-10-16T08:12:34;17.30;1.00
20566;DHT22;10441;50.884;12.064;2022-10-16T08:15:05;17.30;1.00
20566;DHT22;10441;50.884;12.064;2022-10-16T11:18:29;21.40;1.00
20566;DHT22;10441;50.884;12.064;2022-10-16T11:20:57;21.50;1.00
20566;DHT22;10441;50.884;12.064;2022-10-16T11:23:26;21.40;1.00
20566;DHT22;10441;50.884;12.064;2022-10-16T11:25:56;21.40;1.00
20566;DHT22;10441;50.884;12.064;2022-10-16T11:28:25;21.30;1.00
20566;DHT22;10441;50.884;12.064;2022-10-16T11:30:56;21.20;1.00
20566;DHT22;10441;50.884;12.064;2022-10-16T11:33:25;21.30;1.00
20566;DHT22;10441;50.884;12.064;2022-10-16T11:36:00;21.20;1.00
20566;DHT22;10441;50.884;12.064;2022-10-16T11:38:29;21.30;1.00
20566;DHT22;10441;50.884;12.064;2022-10-16T11:40:59;21.40;1.00
20566;DHT22;10441;50.884;12.064;2022-10-16T11:43:28;21.50;1.00
20566;DHT22;10441;50.884;12.064;2022-10-16T11:45:58;21.30;1.00
20566;DHT22;10441;50.884;12.064;2022-10-16T11:48:30;21.10;1.00
20566;DHT22;10441;50.884;12.064;2022-10-16T11:51:02;21.20;1.00
20566;DHT22;10441;50.884;12.064;2022-10-16T11:53:37;20.90;1.00
20566;DHT22;10441;50.884;12.064;2022-10-16T11:56:06;20.70;1.00
20566;DHT22;10441;50.884;12.064;2022-10-16T11:58:33;20.70;1.00
20566;DHT22;10441;50.884;12.064;2022-10-16T12:01:10;20.60;1.00
20566;DHT22;10441;50.884;12.064;2022-10-16T12:03:42;20.60;1.00
20566;DHT22;10441;50.884;12.064;2022-10-16T12:06:19;20.80;1.00
20566;DHT22;10441;50.884;12.064;2022-10-16T12:08:49;21.00;1.00
20566;DHT22;10441;50.884;12.064;2022-10-16T12:11:23;20.80;1.00
20566;DHT22;10441;50.884;12.064;2022-10-16T12:13:51;20.80;1.00
20566;DHT22;10441;50.884;12.064;2022-10-16T12:16:22;20.60;1.00
20566;DHT22;10441;50.884;12.064;2022-10-16T14:21:13;21.10;99.90
20566;DHT22;10441;50.884;12.064;2022-10-16T14:23:42;20.70;99.90
20566;DHT22;10441;50.884;12.064;2022-10-16T14:26:17;20.80;99.90
20566;DHT22;10441;50.884;12.064;2022-10-16T14:28:45;20.60;99.90
20566;DHT22;10441;50.884;12.064;2022-10-16T14:31:24;20.40;99.90
20566;DHT22;10441;50.884;12.064;2022-10-16T14:33:54;20.40;99.90
20566;DHT22;10441;50.884;12.064;2022-10-16T14:36:22;20.30;99.90
20566;DHT22;10441;50.884;12.064;2022-10-16T14:38:54;20.30;99.90
20566;DHT22;10441;50.884;12.064;2022-10-16T14:41:22;20.20;99.90
20566;DHT22;10441;50.884;12.064;2022-10-16T14:43:50;20.10;99.90
20566;DHT22;10441;50.884;12.064;2022-10-16T14:46:19;20.00;99.90
20566;DHT22;10441;50.884;12.064;2022-10-16T14:48:49;20.10;99.90
20566;DHT22;10441;50.884;12.064;2022-10-16T14:54:29;20.00;99.90
20566;DHT22;10441;50.884;12.064;2022-10-16T14:56:57;19.70;99.90
20566;DHT22;10441;50.884;12.064;2022-10-16T14:59:24;19.60;99.90
20566;DHT22;10441;50.884;12.064;2022-10-16T15:01:52;19.40;1.00
20566;DHT22;10441;50.884;12.064;2022-10-16T15:04:21;19.40;99.90
20566;DHT22;10441;50.884;12.064;2022-10-16T15:06:50;19.20;1.00
20566;DHT22;10441;50.884;12.064;2022-10-16T15:09:16;19.20;1.00
20566;DHT22;10441;50.884;12.064;2022-10-16T15:11:44;19.10;1.00
20566;DHT22;10441;50.884;12.064;2022-10-16T15:14:12;19.00;1.00
20566;DHT22;10441;50.884;12.064;2022-10-16T15:16:39;18.90;1.00
20566;DHT22;10441;50.884;12.064;2022-10-16T15:19:06;18.70;1.00
20566;DHT22;10441;50.884;12.064;2022-10-16T16:22:37;16.20;99.90
20566;DHT22;10441;50.884;12.064;2022-10-16T16:25:04;16.00;99.90
20566;DHT22;10441;50.884;12.064;2022-10-16T16:27:34;16.00;99.90
20566;DHT22;10441;50.884;12.064;2022-10-16T16:30:05;15.90;1.00
20566;DHT22;10441;50.884;12.064;2022-10-16T16:32:35;15.90;99.90
20566;DHT22;10441;50.884;12.064;2022-10-16T16:35:05;16.00;99.90
20566;DHT22;10441;50.884;12.064;2022-10-16T16:37:35;16.00;31.00
20566;DHT22;10441;50.884;12.064;2022-10-16T16:40:06;15.90;99.90
20566;DHT22;10441;50.884;12.064;2022-10-16T16:42:35;15.80;99.90
20566;DHT22;10441;50.884;12.064;2022-10-16T16:45:05;15.80;99.90
20566;DHT22;10441;50.884;12.064;2022-10-16T16:47:38;15.60;99.90
20566;DHT22;10441;50.884;12.064;2022-10-16T16:50:05;15.50;1.00
20566;DHT22;10441;50.884;12.064;2022-10-16T16:52:35;15.40;1.00
20566;DHT22;10441;50.884;12.064;2022-10-16T16:55:04;15.30;3.50
20566;DHT22;10441;50.884;12.064;2022-10-16T16:57:32;15.20;1.00
20566;DHT22;10441;50.884;12.064;2022-10-16T16:59:59;15.10;99.90
20566;DHT22;10441;50.884;12.064;2022-10-16T17:02:27;15.00;99.90
20566;DHT22;10441;50.884;12.064;2022-10-16T17:04:56;15.00;1.00
20566;DHT22;10441;50.884;12.064;2022-10-16T17:07:24;15.10;1.00
20566;DHT22;10441;50.884;12.064;2022-10-16T17:09:53;15.10;1.00
20566;DHT22;10441;50.884;12.064;2022-10-16T17:12:21;15.00;98.70
20566;DHT22;10441;50.884;12.064;2022-10-16T17:14:51;14.90;98.00
20566;DHT22;10441;50.884;12.064;2022-10-16T17:17:22;14.90;99.90
20566;DHT22;10441;50.884;12.064;2022-10-16T17:19:50;14.90;99.90
20566;DHT22;10441;50.884;12.064;2022-10-16T21:23:51;12.90;99.90
20566;DHT22;10441;50.884;12.064;2022-10-16T21:26:18;12.90;99.90
20566;DHT22;10441;50.884;12.064;2022-10-16T21:28:50;12.80;99.90
20566;DHT22;10441;50.884;12.064;2022-10-16T21:31:18;12.90;99.90
20566;DHT22;10441;50.884;12.064;2022-10-16T21:33:45;12.80;99.90
20566;DHT22;10441;50.884;12.064;2022-10-16T21:36:12;12.70;99.90
20566;DHT22;10441;50.884;12.064;2022-10-16T21:38:39;12.70;99.90
20566;DHT22;10441;50.884;12.064;2022-10-16T21:41:14;12.70;99.90
20566;DHT22;10441;50.884;12.064;2022-10-16T21:43:42;12.80;99.90
20566;DHT22;10441;50.884;12.064;2022-10-16T21:46:09;12.80;99.90
20566;DHT22;10441;50.884;12.064;2022-10-16T21:48:36;12.80;99.90
20566;DHT22;10441;50.884;12.064;2022-10-16T21:51:04;12.80;99.90
20566;DHT22;10441;50.884;12.064;2022-10-16T21:53:31;12.80;99.90
20566;DHT22;10441;50.884;12.064;2022-10-16T21:55:57;12.70;99.90
20566;DHT22;10441;50.884;12.064;2022-10-16T21:58:26;12.60;99.90
20566;DHT22;10441;50.884;12.064;2022-10-16T22:00:53;12.60;99.90
20566;DHT22;10441;50.884;12.064;2022-10-16T22:03:19;12.60;99.90
20566;DHT22;10441;50.884;12.064;2022-10-16T22:05:47;12.70;99.90
20566;DHT22;10441;50.884;12.064;2022-10-16T22:08:14;12.60;99.90
20566;DHT22;10441;50.884;12.064;2022-10-16T22:10:41;12.70;99.90
20566;DHT22;10441;50.884;12.064;2022-10-16T22:13:08;12.70;99.90
20566;DHT22;10441;50.884;12.064;2022-10-16T22:15:36;12.70;99.90
20566;DHT22;10441;50.884;12.064;2022-10-16T22:18:03;12.70;99.90
20566;DHT22;10441;50.884;12.064;2022-10-16T22:20:29;12.80;99.90
20566;DHT22;10441;50.884;12.064;2022-10-16T22:22:56;12.90;99.90
20566;DHT22;10441;50.884;12.064;2022-10-16T22:25:23;13.00;99.90
20566;DHT22;10441;50.884;12.064;2022-10-16T22:27:50;12.90;99.90
20566;DHT22;10441;50.884;12.064;2022-10-16T22:30:17;13.00;99.90
20566;DHT22;10441;50.884;12.064;2022-10-16T22:32:47;13.00;99.90
20566;DHT22;10441;50.884;12.064;2022-10-16T22:35:14;12.80;99.90
20566;DHT22;10441;50.884;12.064;2022-10-16T22:37:41;12.70;99.90
20566;DHT22;10441;50.884;12.064;2022-10-16T22:40:08;12.70;99.90
20566;DHT22;10441;50.884;12.064;2022-10-16T22:42:35;12.60;99.90
20566;DHT22;10441;50.884;12.064;2022-10-16T22:45:03;12.60;99.90
20566;DHT22;10441;50.884;12.064;2022-10-16T22:47:29;12.60;99.90
20566;DHT22;10441;50.884;12.064;2022-10-16T22:49:57;12.60;99.90
20566;DHT22;10441;50.884;12.064;2022-10-16T22:52:25;12.60;99.90
20566;DHT22;10441;50.884;12.064;2022-10-16T22:54:51;12.50;99.90
20566;DHT22;10441;50.884;12.064;2022-10-16T22:57:18;12.40;99.90
20566;DHT22;10441;50.884;12.064;2022-10-16T22:59:46;12.20;99.90
20566;DHT22;10441;50.884;12.064;2022-10-16T23:02:12;12.10;99.90
20566;DHT22;10441;50.884;12.064;2022-10-16T23:04:39;12.10;99.90
20566;DHT22;10441;50.884;12.064;2022-10-16T23:07:08;12.00;99.90
20566;DHT22;10441;50.884;12.064;2022-10-16T23:09:35;11.90;99.90
20566;DHT22;10441;50.884;12.064;2022-10-16T23:12:02;11.90;99.90
20566;DHT22;10441;50.884;12.064;2022-10-16T23:14:29;11.90;99.90
20566;DHT22;10441;50.884;12.064;2022-10-16T23:16:56;12.00;99.90
20566;DHT22;10441;50.884;12.064;2022-10-16T23:19:23;11.70;99.90
20566;DHT22;10441;50.884;12.064;2022-10-16T23:21:50;11.70;99.90
20566;DHT22;10441;50.884;12.064;2022-10-16T23:24:19;11.70;99.90
20566;DHT22;10441;50.884;12.064;2022-10-16T23:26:46;11.90;99.90
20566;DHT22;10441;50.884;12.064;2022-10-16T23:29:13;11.90;99.90
20566;DHT22;10441;50.884;12.064;2022-10-16T23:31:40;12.00;99.90
20566;DHT22;10441;50.884;12.064;2022-10-16T23:34:07;12.30;99.90
20566;DHT22;10441;50.884;12.064;2022-10-16T23:36:34;12.60;99.90
20566;DHT22;10441;50.884;12.064;2022-10-16T23:39:00;12.70;99.90
20566;DHT22;10441;50.884;12.064;2022-10-16T23:41:29;13.10;99.90
20566;DHT22;10441;50.884;12.064;2022-10-16T23:43:56;12.80;99.90
20566;DHT22;10441;50.884;12.064;2022-10-16T23:46:22;12.80;99.90
20566;DHT22;10441;50.884;12.064;2022-10-16T23:48:49;12.60;99.90
20566;DHT22;10441;50.884;12.064;2022-10-16T23:51:16;12.50;99.90
20566;DHT22;10441;50.884;12.064;2022-10-16T23:53:43;12.40;99.90
20566;DHT22;10441;50.884;12.064;2022-10-16T23:56:10;12.30;99.90
20566;DHT22;10441;50.884;12.064;2022-10-16T23:58:39;12.30;99.90
